sensor_id;sensor_type;location;lat;lon;timestamp;P1;durP1;ratioP1;P2;durP2;ratioP2
26838;SDS011;40088;51.214;6.786;2022-12-18T00:04:20;9.20;;;6.90;;
26838;SDS011;40088;51.214;6.786;2022-12-18T00:24:23;7.72;;;6.50;;
26838;SDS011;40088;51.214;6.786;2022-12-18T00:34:23;7.93;;;6.00;;
26838;SDS011;40088;51.214;6.786;2022-12-18T00:44:23;7.65;;;6.10;;
26838;SDS011;40088;51.214;6.786;2022-12-18T00:54:24;6.50;;;5.28;;
26838;SDS011;40088;51.214;6.786;2022-12-18T01:04:24;7.90;;;6.05;;
26838;SDS011;40088;51.214;6.786;2022-12-18T01:14:24;7.70;;;5.45;;
26838;SDS011;40088;51.214;6.786;2022-12-18T01:24:24;7.30;;;6.07;;
26838;SDS011;40088;51.214;6.786;2022-12-18T01:34:25;7.78;;;6.10;;
26838;SDS011;40088;51.214;6.786;2022-12-18T01:54:56;6.72;;;4.93;;
26838;SDS011;40088;51.214;6.786;2022-12-18T02:04:57;6.43;;;5.45;;
26838;SDS011;40088;51.214;6.786;2022-12-18T02:15:13;7.13;;;5.17;;
26838;SDS011;40088;51.214;6.786;2022-12-18T02:36:02;6.78;;;5.55;;
26838;SDS011;40088;51.214;6.786;2022-12-18T02:56:54;7.18;;;5.72;;
26838;SDS011;40088;51.214;6.786;2022-12-18T03:06:58;7.60;;;5.57;;
26838;SDS011;40088;51.214;6.786;2022-12-18T03:17:03;6.45;;;5.22;;
26838;SDS011;40088;51.214;6.786;2022-12-18T03:27:09;6.75;;;5.43;;
26838;SDS011;40088;51.214;6.786;2022-12-18T03:37:12;7.43;;;5.30;;
26838;SDS011;40088;51.214;6.786;2022-12-18T03:47:27;8.20;;;5.43;;
26838;SDS011;40088;51.214;6.786;2022-12-18T03:57:31;7.70;;;5.63;;
26838;SDS011;40088;51.214;6.786;2022-12-18T04:07:32;6.57;;;5.10;;
26838;SDS011;40088;51.214;6.786;2022-12-18T04:17:33;6.75;;;4.95;;
26838;SDS011;40088;51.214;6.786;2022-12-18T04:27:34;5.97;;;4.63;;
26838;SDS011;40088;51.214;6.786;2022-12-18T04:37:34;6.30;;;4.57;;
26838;SDS011;40088;51.214;6.786;2022-12-18T04:47:34;6.40;;;4.82;;
26838;SDS011;40088;51.214;6.786;2022-12-18T04:57:35;5.97;;;4.70;;
26838;SDS011;40088;51.214;6.786;2022-12-18T05:07:35;5.93;;;4.65;;
26838;SDS011;40088;51.214;6.786;2022-12-18T05:17:35;6.65;;;4.80;;
26838;SDS011;40088;51.214;6.786;2022-12-18T05:27:35;6.07;;;4.50;;
26838;SDS011;40088;51.214;6.786;2022-12-18T05:37:36;6.40;;;4.75;;
26838;SDS011;40088;51.214;6.786;2022-12-18T05:47:36;4.63;;;4.10;;
26838;SDS011;40088;51.214;6.786;2022-12-18T05:57:36;5.38;;;4.15;;
26838;SDS011;40088;51.214;6.786;2022-12-18T06:07:37;5.13;;;4.40;;
26838;SDS011;40088;51.214;6.786;2022-12-18T06:17:37;5.78;;;4.45;;
26838;SDS011;40088;51.214;6.786;2022-12-18T06:27:37;5.28;;;4.43;;
26838;SDS011;40088;51.214;6.786;2022-12-18T06:37:38;5.43;;;4.50;;
26838;SDS011;40088;51.214;6.786;2022-12-18T06:47:38;5.93;;;4.60;;
26838;SDS011;40088;51.214;6.786;2022-12-18T06:57:38;5.25;;;3.90;;
26838;SDS011;40088;51.214;6.786;2022-12-18T07:07:38;5.07;;;4.38;;
26838;SDS011;40088;51.214;6.786;2022-12-18T07:17:39;6.13;;;4.45;;
26838;SDS011;40088;51.214;6.786;2022-12-18T07:27:39;5.78;;;4.63;;
26838;SDS011;40088;51.214;6.786;2022-12-18T07:37:39;5.20;;;4.03;;
26838;SDS011;40088;51.214;6.786;2022-12-18T07:47:40;6.55;;;4.50;;
26838;SDS011;40088;51.214;6.786;2022-12-18T07:57:41;4.85;;;4.10;;
26838;SDS011;40088;51.214;6.786;2022-12-18T08:07:41;6.22;;;4.57;;
26838;SDS011;40088;51.214;6.786;2022-12-18T08:17:41;4.22;;;3.83;;
26838;SDS011;40088;51.214;6.786;2022-12-18T08:27:41;4.97;;;4.47;;
26838;SDS011;40088;51.214;6.786;2022-12-18T08:37:42;5.32;;;4.35;;
26838;SDS011;40088;51.214;6.786;2022-12-18T08:47:42;5.35;;;4.10;;
26838;SDS011;40088;51.214;6.786;2022-12-18T08:57:42;5.10;;;4.15;;
26838;SDS011;40088;51.214;6.786;2022-12-18T09:07:42;7.82;;;5.05;;
26838;SDS011;40088;51.214;6.786;2022-12-18T09:17:43;4.57;;;4.10;;
26838;SDS011;40088;51.214;6.786;2022-12-18T09:27:43;5.80;;;4.20;;
26838;SDS011;40088;51.214;6.786;2022-12-18T09:47:47;6.55;;;4.65;;
26838;SDS011;40088;51.214;6.786;2022-12-18T09:57:51;5.65;;;4.80;;
26838;SDS011;40088;51.214;6.786;2022-12-18T10:08:05;5.57;;;4.40;;
26838;SDS011;40088;51.214;6.786;2022-12-18T10:28:39;5.97;;;4.72;;
26838;SDS011;40088;51.214;6.786;2022-12-18T10:38:40;5.03;;;4.13;;
26838;SDS011;40088;51.214;6.786;2022-12-18T10:58:55;5.65;;;4.57;;
26838;SDS011;40088;51.214;6.786;2022-12-18T11:09:04;6.60;;;4.53;;
26838;SDS011;40088;51.214;6.786;2022-12-18T11:29:35;4.93;;;4.10;;
26838;SDS011;40088;51.214;6.786;2022-12-18T11:39:41;6.70;;;4.15;;
26838;SDS011;40088;51.214;6.786;2022-12-18T11:49:47;5.90;;;4.35;;
26838;SDS011;40088;51.214;6.786;2022-12-18T11:59:55;6.03;;;4.68;;
26838;SDS011;40088;51.214;6.786;2022-12-18T12:30:54;5.60;;;4.35;;
26838;SDS011;40088;51.214;6.786;2022-12-18T12:41:20;4.75;;;4.10;;
26838;SDS011;40088;51.214;6.786;2022-12-18T12:51:45;6.97;;;4.70;;
26838;SDS011;40088;51.214;6.786;2022-12-18T13:02:34;6.30;;;4.97;;
26838;SDS011;40088;51.214;6.786;2022-12-18T13:12:25;6.82;;;5.03;;
26838;SDS011;40088;51.214;6.786;2022-12-18T13:22:44;6.50;;;5.03;;
26838;SDS011;40088;51.214;6.786;2022-12-18T13:32:48;5.60;;;4.72;;
26838;SDS011;40088;51.214;6.786;2022-12-18T13:53:24;6.68;;;5.10;;
26838;SDS011;40088;51.214;6.786;2022-12-18T14:03:29;6.90;;;5.32;;
26838;SDS011;40088;51.214;6.786;2022-12-18T14:13:31;7.68;;;6.05;;
26838;SDS011;40088;51.214;6.786;2022-12-18T14:23:36;7.30;;;5.57;;
26838;SDS011;40088;51.214;6.786;2022-12-18T14:33:41;7.65;;;5.40;;
26838;SDS011;40088;51.214;6.786;2022-12-18T14:43:42;7.47;;;6.15;;
26838;SDS011;40088;51.214;6.786;2022-12-18T14:53:56;7.40;;;5.93;;
26838;SDS011;40088;51.214;6.786;2022-12-18T15:04:00;6.80;;;5.75;;
26838;SDS011;40088;51.214;6.786;2022-12-18T15:24:30;9.05;;;6.38;;
26838;SDS011;40088;51.214;6.786;2022-12-18T15:34:32;7.45;;;6.30;;
26838;SDS011;40088;51.214;6.786;2022-12-18T15:44:34;9.15;;;6.00;;
26838;SDS011;40088;51.214;6.786;2022-12-18T15:54:34;7.80;;;6.27;;
26838;SDS011;40088;51.214;6.786;2022-12-18T16:04:53;7.50;;;5.97;;
26838;SDS011;40088;51.214;6.786;2022-12-18T16:14:54;8.47;;;6.47;;
26838;SDS011;40088;51.214;6.786;2022-12-18T16:24:54;17.08;;;11.52;;
26838;SDS011;40088;51.214;6.786;2022-12-18T16:34:59;13.32;;;9.73;;
26838;SDS011;40088;51.214;6.786;2022-12-18T16:44:59;11.25;;;8.45;;
26838;SDS011;40088;51.214;6.786;2022-12-18T16:54:59;10.48;;;7.65;;
26838;SDS011;40088;51.214;6.786;2022-12-18T17:05:00;10.30;;;8.15;;
26838;SDS011;40088;51.214;6.786;2022-12-18T17:15:00;11.85;;;8.00;;
26838;SDS011;40088;51.214;6.786;2022-12-18T17:25:00;9.43;;;7.70;;
26838;SDS011;40088;51.214;6.786;2022-12-18T17:35:01;11.73;;;8.50;;
26838;SDS011;40088;51.214;6.786;2022-12-18T17:45:01;11.05;;;8.40;;
26838;SDS011;40088;51.214;6.786;2022-12-18T17:55:01;9.95;;;8.23;;
26838;SDS011;40088;51.214;6.786;2022-12-18T18:05:02;9.57;;;8.00;;
26838;SDS011;40088;51.214;6.786;2022-12-18T18:15:02;10.38;;;8.98;;
26838;SDS011;40088;51.214;6.786;2022-12-18T18:25:03;10.50;;;8.80;;
26838;SDS011;40088;51.214;6.786;2022-12-18T18:35:04;11.90;;;9.20;;
26838;SDS011;40088;51.214;6.786;2022-12-18T18:45:05;12.48;;;9.05;;
26838;SDS011;40088;51.214;6.786;2022-12-18T18:55:06;11.00;;;8.77;;
26838;SDS011;40088;51.214;6.786;2022-12-18T19:05:07;10.65;;;9.02;;
26838;SDS011;40088;51.214;6.786;2022-12-18T19:15:07;12.53;;;9.60;;
26838;SDS011;40088;51.214;6.786;2022-12-18T19:25:08;11.73;;;9.40;;
26838;SDS011;40088;51.214;6.786;2022-12-18T19:35:08;12.38;;;10.00;;
26838;SDS011;40088;51.214;6.786;2022-12-18T19:45:09;13.25;;;9.93;;
26838;SDS011;40088;51.214;6.786;2022-12-18T19:55:09;14.53;;;10.80;;
26838;SDS011;40088;51.214;6.786;2022-12-18T20:05:10;12.65;;;10.30;;
26838;SDS011;40088;51.214;6.786;2022-12-18T20:15:11;14.13;;;10.95;;
26838;SDS011;40088;51.214;6.786;2022-12-18T20:25:12;12.57;;;10.60;;
26838;SDS011;40088;51.214;6.786;2022-12-18T20:35:12;13.53;;;10.33;;
26838;SDS011;40088;51.214;6.786;2022-12-18T20:45:13;13.15;;;10.63;;
26838;SDS011;40088;51.214;6.786;2022-12-18T20:55:13;13.50;;;10.75;;
26838;SDS011;40088;51.214;6.786;2022-12-18T21:05:13;15.70;;;11.75;;
26838;SDS011;40088;51.214;6.786;2022-12-18T21:15:14;14.15;;;11.02;;
26838;SDS011;40088;51.214;6.786;2022-12-18T21:25:14;13.90;;;11.13;;
26838;SDS011;40088;51.214;6.786;2022-12-18T21:35:15;14.32;;;10.25;;
26838;SDS011;40088;51.214;6.786;2022-12-18T21:45:15;17.00;;;11.70;;
26838;SDS011;40088;51.214;6.786;2022-12-18T21:55:16;16.27;;;11.90;;
26838;SDS011;40088;51.214;6.786;2022-12-18T22:05:16;14.60;;;10.85;;
26838;SDS011;40088;51.214;6.786;2022-12-18T22:15:17;13.50;;;10.82;;
26838;SDS011;40088;51.214;6.786;2022-12-18T22:25:17;14.30;;;11.07;;
26838;SDS011;40088;51.214;6.786;2022-12-18T22:35:17;14.98;;;10.88;;
26838;SDS011;40088;51.214;6.786;2022-12-18T22:45:18;13.60;;;10.20;;
26838;SDS011;40088;51.214;6.786;2022-12-18T22:55:19;14.82;;;11.50;;
26838;SDS011;40088;51.214;6.786;2022-12-18T23:05:19;15.45;;;10.40;;
26838;SDS011;40088;51.214;6.786;2022-12-18T23:15:19;13.77;;;10.98;;
26838;SDS011;40088;51.214;6.786;2022-12-18T23:25:20;15.15;;;10.93;;
26838;SDS011;40088;51.214;6.786;2022-12-18T23:35:20;14.88;;;11.13;;
26838;SDS011;40088;51.214;6.786;2022-12-18T23:45:20;12.90;;;10.55;;
26838;SDS011;40088;51.214;6.786;2022-12-18T23:55:20;14.73;;;11.07;;
